Flight Track Log - Related Links

Times and Time Zones

All times are in EDT time to prevent confusion due to time zone crossing. See the ASQ5078 flight status page for this flight to view local times or setup timezone preferences in your user account.

Time Position Orientation Groundspeed Altitude Reporting Facility
EDT Latitude Longitude Course Direction KTS MPH feet Rate Location/Type
Mon 02:25:44 PM 30.5169 -84.1658 47° Northeast 250 288 8,100  Level Jacksonville Center
Mon 02:26:44 PM 30.5942 -84.1692 358° North 240 276 10,200 1,350 Climbing Jacksonville Center
Mon 02:27:44 PM 30.6731 -84.2186 332° Northwest 240 276 10,800 900 Climbing Jacksonville Center
Mon 02:28:44 PM 30.7642 -84.2778 331° Northwest 333 383 12,000 1,500 Climbing Jacksonville Center
Mon 02:29:00 PM 30.9051 -84.5032 346° North  Level FlightAware Approximate
Mon 02:29:44 PM 30.8533 -84.3325 358° North 344 396 13,800  Level Jacksonville Center
Mon 02:30:00 PM 30.9912 -84.5275 347° North  Level FlightAware Approximate
Mon 02:30:00 PM 30.8771 -84.2835 358° North  Level Estimated
Mon 02:30:44 PM 30.9447 -84.3919 331° Northwest 355 409 15,400  Level Jacksonville Center
Mon 02:31:44 PM 31.0400 -84.4492 333° Northwest 367 422 16,500 1,000 Climbing Jacksonville Center
Mon 02:32:44 PM 31.1353 -84.5067 333° Northwest 380 437 17,400 750 Climbing Jacksonville Center
Mon 02:33:44 PM 31.2347 -84.5714 331° Northwest 391 450 18,000 700 Climbing Jacksonville Center
Mon 02:34:44 PM 31.3383 -84.6292 335° Northwest 397 457 18,800 915 Climbing Jacksonville Center
Mon 02:36:41 PM 31.5425 -84.6992 344° North 402 463 20,700 1,051 Climbing Atlanta Center
Mon 02:37:41 PM 31.6508 -84.7392 343° North 402 463 21,900 650 Climbing Atlanta Center
Mon 02:38:41 PM 31.7653 -84.7767 344° North 407 468 22,000 50 Climbing Atlanta Center
Mon 02:39:41 PM 31.8800 -84.8117 345° North 418 481 22,000  Level Atlanta Center
Mon 02:40:41 PM 32.0006 -84.8519 344° North 429 494 22,000  Level Atlanta Center
Mon 02:41:41 PM 32.1236 -84.8825 348° North 440 506 22,000  Level Atlanta Center
Mon 02:42:41 PM 32.2467 -84.8983 354° North 440 506 22,000  Level Atlanta Center
Mon 02:43:41 PM 32.3739 -84.9119 355° North 446 513 22,000  Level Atlanta Center
Mon 02:44:41 PM 32.4947 -84.9278 354° North 446 513 22,000  Level Atlanta Center
Mon 02:45:41 PM 32.6242 -84.9489 352° North 446 513 22,000 -650 Level Atlanta Center
Mon 02:46:41 PM 32.7450 -84.9650 354° North 446 513 20,700 -1,950 Descending Atlanta Center
Mon 02:47:41 PM 32.8639 -84.9858 352° North 441 507 18,100 -2,600 Descending Atlanta Center
Mon 02:48:41 PM 32.9786 -85.0022 353° North 429 494 15,500 -2,350 Descending Atlanta Center
Mon 02:49:41 PM 33.0869 -85.0181 353° North 404 465 13,400 -1,750 Descending Atlanta Center
Mon 02:50:41 PM 33.1914 -85.0094 North 366 421 12,000 -750 Descending Atlanta Center
Mon 02:51:41 PM 33.2942 -84.9533 25° Northeast 386 444 11,900 -900 Descending Atlanta Center
Mon 02:52:41 PM 33.4050 -84.9097 18° North 386 444 10,200 -1,150 Descending Atlanta Center
Mon 02:53:41 PM 33.4867 -84.8806 17° North 341 392 9,600 -1,227 Descending Atlanta Center
Mon 02:54:09 PM 33.5333 -84.8667 14° North 285 328 8,400 -1,227 Descending Atlanta TRACON
Mon 02:55:09 PM 33.6000 -84.8500 12° North 255 293 7,800 -950 Descending Atlanta TRACON
Mon 02:56:09 PM 33.6333 -84.7833 59° Northeast 241 277 6,500 -1,150 Descending Atlanta TRACON
Mon 02:58:00 PM 33.5737 -84.6340 116° Southeast  Level FlightAware Approximate
Mon 02:59:09 PM 33.6333 -84.5833 116° Southeast 179 206 3,200  Level Atlanta TRACON
Mon 03:00:09 PM 33.6333 -84.5333 90° East 166 191 2,400 -800 Descending Atlanta TRACON
Mon 03:01:09 PM 33.6333 -84.4833 90° East 146 168 1,600 -800 Descending Atlanta TRACON
Mon 03:03:00 PM 33.6367 -84.4279 90° East  Level Estimated
Mon 03:10:00 PM 33.6367 -84.4279 90° East  Level Estimated

Login

Don't have an account? Register now (free) for customized features, flight alerts, and more!